Terminal Aerodrome Forecast
Issued by NWS Missoula, MT

Home | Current Version | Previous Version | Text Only | Print | Product List | Glossary On
Versions: 1 2 3 4 5 6 7 8 9 10 11 12 13 14 15 16 17 18
000
FTUS45 KMSO 281720
TAFGPI
TAF
KGPI 281720Z 2818/2918 16012KT P6SM VCSH BKN040 OVC045
     FM282300 18012G22KT 6SM -RA BR BKN025 OVC050
     FM290600 06020G35KT 4SM -SN SCT009 OVC020
     FM291100 04020G35KT 4SM -SN BKN009 OVC020
     FM291600 04015G30KT 5SM -SN OVC020=

USA.gov is the U.S. government's official web portal to all federal, state and local government web resources and services.